Time;durP1;ratioP1;P1;durP2;ratioP2;P2;SDS_P1;SDS_P2;PMS_P1;PMS_P2;Temp;Humidity;BMP_temperature;BMP_pressure;BME280_temperature;BME280_humidity;BME280_pressure;Samples;Min_cycle;Max_cycle;Signal;HPM_P1;HPM_P2
2024/02/24 00:00:03;;;;;;;1.73;1.63;;;9.90;99.90;;;;;;5021780;28;20480;-27
2024/02/24 00:02:37;;;;;;;3.63;1.80;;;10.00;99.90;;;;;;5040861;28;20429;-26
2024/02/24 00:05:05;;;;;;;1.80;1.70;;;9.90;99.90;;;;;;5021865;28;20992;-26
2024/02/24 00:07:33;;;;;;;2.17;2.07;;;9.90;99.90;;;;;;5035625;28;20445;-26
2024/02/24 00:10:01;;;;;;;2.70;2.50;;;9.90;99.90;;;;;;5038120;28;20542;-27
2024/02/24 00:12:33;;;;;;;2.57;1.93;;;9.90;99.90;;;;;;5020537;28;20485;-26
2024/02/24 00:15:01;;;;;;;2.13;1.57;;;9.90;99.90;;;;;;5023942;28;20469;-26
2024/02/24 00:17:28;;;;;;;1.80;1.70;;;9.90;99.90;;;;;;5020836;28;21299;-26
2024/02/24 00:19:54;;;;;;;1.70;1.60;;;9.90;99.90;;;;;;5042512;28;20510;-26
2024/02/24 00:22:20;;;;;;;1.73;1.63;;;9.90;99.90;;;;;;5020173;28;20537;-30
2024/02/24 00:24:49;;;;;;;2.50;1.80;;;10.10;99.90;;;;;;5037472;28;20440;-29
2024/02/24 00:27:17;;;;;;;1.80;1.70;;;9.90;99.90;;;;;;5037763;28;20431;-27
2024/02/24 00:29:45;;;;;;;1.77;1.40;;;9.90;99.90;;;;;;5019994;28;20454;-27
2024/02/24 00:32:13;;;;;;;2.20;2.00;;;9.90;99.90;;;;;;5039105;28;20544;-29
2024/02/24 00:34:40;;;;;;;3.90;1.80;;;9.90;99.90;;;;;;5022582;28;20567;-26
2024/02/24 00:37:06;;;;;;;4.47;2.83;;;9.90;99.90;;;;;;5041445;28;20501;-30
2024/02/24 00:39:32;;;;;;;1.87;1.77;;;9.90;99.90;;;;;;5022654;28;21001;-30
2024/02/24 00:41:59;;;;;;;2.13;1.50;;;9.90;99.90;;;;;;5022964;28;20991;-29
2024/02/24 00:44:24;;;;;;;1.87;1.73;;;9.90;99.90;;;;;;5040965;28;20521;-29
2024/02/24 00:46:52;;;;;;;1.80;1.70;;;9.90;99.90;;;;;;5040822;28;20794;-28
2024/02/24 00:49:18;;;;;;;1.87;1.60;;;10.00;99.90;;;;;;5044785;28;20573;-30
2024/02/24 00:51:44;;;;;;;1.80;1.70;;;9.90;99.90;;;;;;4989888;28;21333;-30
2024/02/24 00:54:10;;;;;;;1.80;1.70;;;9.80;99.90;;;;;;5022867;28;20450;-26
2024/02/24 00:56:36;;;;;;;1.80;1.70;;;9.90;99.90;;;;;;5041223;28;20498;-26
2024/02/24 00:59:05;;;;;;;1.70;1.60;;;9.90;99.90;;;;;;5039965;28;21231;-27
2024/02/24 01:01:36;;;;;;;1.97;1.60;;;9.90;99.90;;;;;;5032907;28;20421;-26
2024/02/24 01:04:07;;;;;;;1.60;1.50;;;9.90;99.90;;;;;;5038824;28;20500;-26
2024/02/24 01:06:33;;;;;;;1.80;1.70;;;9.90;99.90;;;;;;5035628;28;20492;-29
2024/02/24 01:08:59;;;;;;;2.00;1.60;;;9.90;99.90;;;;;;5021038;28;20434;-28
2024/02/24 01:11:25;;;;;;;1.60;1.37;;;9.90;99.90;;;;;;5018754;28;20470;-31
2024/02/24 01:13:53;;;;;;;1.80;1.70;;;9.90;99.90;;;;;;5021858;28;20454;-27
2024/02/24 01:16:20;;;;;;;1.90;1.80;;;9.90;99.90;;;;;;5020590;28;20433;-26
2024/02/24 01:18:48;;;;;;;4.30;1.67;;;9.80;99.90;;;;;;5039926;28;21075;-27
2024/02/24 01:21:14;;;;;;;2.53;1.67;;;9.90;99.90;;;;;;5040234;28;21352;-26
2024/02/24 01:23:40;;;;;;;1.90;1.60;;;9.90;99.90;;;;;;5041258;28;20528;-28
2024/02/24 01:26:06;;;;;;;1.60;1.50;;;9.90;99.90;;;;;;5018868;28;20412;-27
2024/02/24 01:28:36;;;;;;;1.97;1.80;;;9.80;99.90;;;;;;5039728;28;20419;-30
2024/02/24 01:31:03;;;;;;;2.43;1.70;;;9.90;99.90;;;;;;5040142;28;20478;-29
2024/02/24 01:33:29;;;;;;;1.90;1.80;;;9.90;99.90;;;;;;5039641;28;20570;-28
2024/02/24 01:35:55;;;;;;;1.70;1.60;;;9.80;99.90;;;;;;5041589;28;20570;-28
2024/02/24 01:38:24;;;;;;;2.77;1.97;;;9.80;99.90;;;;;;5006667;28;20509;-28
2024/02/24 01:40:50;;;;;;;2.90;1.80;;;9.80;99.90;;;;;;5044311;28;20506;-29
2024/02/24 01:43:30;;;;;;;1.80;1.70;;;9.80;99.90;;;;;;5004066;28;21300;-28
2024/02/24 01:45:59;;;;;;;1.70;1.60;;;9.80;99.90;;;;;;5039529;28;21024;-29
2024/02/24 01:48:25;;;;;;;1.90;1.80;;;9.80;99.90;;;;;;5039960;28;20427;-27
2024/02/24 01:50:53;;;;;;;2.80;1.93;;;9.80;99.90;;;;;;5021683;28;21133;-27
2024/02/24 01:53:21;;;;;;;1.87;1.77;;;9.80;99.90;;;;;;5016712;28;20446;-30
2024/02/24 01:55:48;;;;;;;1.47;1.37;;;9.80;99.90;;;;;;5021402;28;20433;-27
2024/02/24 01:58:17;;;;;;;1.80;1.70;;;9.80;99.90;;;;;;5039527;28;20625;-28
2024/02/24 02:00:45;;;;;;;2.80;2.00;;;9.80;99.90;;;;;;5039117;28;20427;-26
2024/02/24 02:03:11;;;;;;;5.03;1.67;;;9.90;99.90;;;;;;5020270;28;20435;-26
2024/02/24 02:05:37;;;;;;;1.67;1.50;;;9.80;99.90;;;;;;5021010;28;21347;-29
2024/02/24 02:08:03;;;;;;;2.80;1.67;;;9.80;99.90;;;;;;5024362;28;20522;-30
2024/02/24 02:10:43;;;;;;;2.80;1.70;;;9.80;99.90;;;;;;5064716;22;20431;-73
2024/02/24 02:13:09;;;;;;;11.63;2.40;;;9.80;99.90;;;;;;4980218;28;20439;-72
2024/02/24 02:15:41;;;;;;;2.43;1.87;;;9.80;99.90;;;;;;4986627;28;20447;-73
2024/02/24 02:18:07;;;;;;;2.10;1.90;;;9.80;99.90;;;;;;4999457;28;20443;-73
2024/02/24 02:20:34;;;;;;;2.70;1.70;;;9.80;99.90;;;;;;5018190;28;20524;-73
2024/02/24 02:23:00;;;;;;;2.20;2.10;;;9.80;99.90;;;;;;5023498;28;20435;-73
2024/02/24 02:25:28;;;;;;;3.80;2.30;;;9.80;99.90;;;;;;5027959;28;20497;-73
2024/02/24 02:28:00;;;;;;;3.90;2.10;;;9.80;99.90;;;;;;5009720;28;20460;-73
2024/02/24 02:30:26;;;;;;;3.43;1.83;;;9.80;99.90;;;;;;5023373;28;20451;-73
2024/02/24 02:32:52;;;;;;;2.50;1.67;;;9.80;99.90;;;;;;5016877;28;21005;-72
2024/02/24 02:35:18;;;;;;;1.80;1.70;;;9.80;99.90;;;;;;5026743;28;20456;-72
2024/02/24 02:37:46;;;;;;;2.87;1.87;;;9.90;99.90;;;;;;5023977;28;20439;-73
2024/02/24 02:40:12;;;;;;;2.33;1.87;;;9.80;99.90;;;;;;5025971;28;20423;-73
2024/02/24 02:42:42;;;;;;;2.20;2.00;;;9.80;99.90;;;;;;5000233;28;20479;-73
2024/02/24 02:45:08;;;;;;;2.27;2.00;;;9.80;99.90;;;;;;5011504;28;20970;-73
2024/02/24 02:47:36;;;;;;;2.13;1.93;;;9.80;99.90;;;;;;5022193;28;20446;-73
2024/02/24 02:50:07;;;;;;;2.23;2.00;;;9.70;99.90;;;;;;5018380;28;20426;-73
2024/02/24 02:52:33;;;;;;;2.43;2.33;;;9.70;99.90;;;;;;5028055;28;20479;-73
2024/02/24 02:55:00;;;;;;;3.33;2.00;;;9.70;99.90;;;;;;5020865;28;20907;-73
2024/02/24 02:57:28;;;;;;;2.00;1.90;;;9.70;99.90;;;;;;5019631;28;21005;-73
2024/02/24 02:59:56;;;;;;;2.30;1.50;;;9.70;99.90;;;;;;5023638;28;20439;-73
2024/02/24 03:02:24;;;;;;;1.67;1.57;;;9.70;99.90;;;;;;5027354;28;20749;-73
2024/02/24 03:04:53;;;;;;;2.03;1.90;;;9.70;99.90;;;;;;5012576;28;20856;-73
2024/02/24 03:07:19;;;;;;;3.03;1.80;;;9.70;99.90;;;;;;5041486;28;20461;-72
2024/02/24 03:09:48;;;;;;;2.00;1.90;;;9.70;99.90;;;;;;5021862;28;20440;-73
2024/02/24 03:12:16;;;;;;;2.20;1.80;;;9.70;99.90;;;;;;5026319;28;20477;-72
2024/02/24 03:14:43;;;;;;;2.03;1.83;;;9.70;99.90;;;;;;5022120;28;20485;-72
2024/02/24 03:17:09;;;;;;;3.83;1.90;;;9.70;99.90;;;;;;5021423;28;20440;-73
2024/02/24 03:19:35;;;;;;;3.43;1.80;;;9.70;99.90;;;;;;5022998;28;21064;-73
2024/02/24 03:22:04;;;;;;;2.20;2.10;;;9.70;99.90;;;;;;4995488;28;20435;-73
2024/02/24 03:24:30;;;;;;;1.80;1.70;;;9.70;99.90;;;;;;5025241;28;20639;-73
2024/02/24 03:26:58;;;;;;;2.37;2.10;;;9.70;99.90;;;;;;5023574;28;20447;-73
2024/02/24 03:29:27;;;;;;;1.80;1.70;;;9.80;99.90;;;;;;5022273;28;20456;-72
2024/02/24 03:31:55;;;;;;;1.90;1.80;;;9.70;99.90;;;;;;5032414;28;20544;-73
2024/02/24 03:34:27;;;;;;;2.07;1.97;;;9.70;99.90;;;;;;5031747;28;20869;-73
2024/02/24 03:36:55;;;;;;;2.00;1.90;;;9.90;99.90;;;;;;5026385;28;20455;-73
2024/02/24 03:39:26;;;;;;;2.10;1.90;;;9.70;99.90;;;;;;5035766;28;20446;-73
2024/02/24 03:41:52;;;;;;;2.13;2.03;;;9.70;99.90;;;;;;5022743;28;20909;-72
2024/02/24 03:44:23;;;;;;;2.03;1.80;;;9.70;99.90;;;;;;5035922;28;20879;-73
2024/02/24 03:46:51;;;;;;;1.80;1.70;;;9.70;99.90;;;;;;5030747;28;21035;-73
2024/02/24 03:49:17;;;;;;;2.00;1.80;;;9.70;99.90;;;;;;5023030;28;20450;-73
2024/02/24 03:51:45;;;;;;;1.90;1.80;;;9.70;99.90;;;;;;5033988;28;20469;-73
2024/02/24 03:54:14;;;;;;;2.10;1.90;;;9.80;99.90;;;;;;5029445;28;20478;-73
2024/02/24 03:56:42;;;;;;;2.70;2.17;;;9.70;99.90;;;;;;5025854;28;20440;-73
2024/02/24 03:59:08;;;;;;;2.07;1.97;;;9.70;99.90;;;;;;5025937;28;20490;-73
2024/02/24 04:01:39;;;;;;;1.70;1.60;;;9.80;99.90;;;;;;5027088;28;20436;-73
2024/02/24 04:04:06;;;;;;;1.90;1.80;;;9.60;99.90;;;;;;5020939;28;20452;-73
2024/02/24 04:06:34;;;;;;;3.93;1.80;;;9.70;99.90;;;;;;5037401;28;20690;-73
2024/02/24 04:09:00;;;;;;;2.10;1.80;;;9.60;99.90;;;;;;5040880;28;20445;-73
2024/02/24 04:11:26;;;;;;;2.20;2.00;;;9.60;99.90;;;;;;5039606;28;20474;-72
2024/02/24 04:13:52;;;;;;;2.00;1.80;;;9.60;99.90;;;;;;5035596;28;20446;-72
2024/02/24 04:16:18;;;;;;;1.90;1.80;;;9.60;99.90;;;;;;5040188;28;20433;-73
2024/02/24 04:18:44;;;;;;;2.20;1.80;;;9.70;99.90;;;;;;5039050;28;20462;-73
2024/02/24 04:21:13;;;;;;;1.87;1.77;;;9.60;99.90;;;;;;5038121;28;20430;-73
2024/02/24 04:23:39;;;;;;;2.13;1.83;;;9.60;99.90;;;;;;5033879;28;20447;-73
2024/02/24 04:26:05;;;;;;;1.90;1.70;;;9.60;99.90;;;;;;5038989;28;20547;-73
2024/02/24 04:28:31;;;;;;;1.90;1.80;;;9.60;99.90;;;;;;5038236;28;20985;-73
2024/02/24 04:30:57;;;;;;;2.00;1.90;;;9.60;99.90;;;;;;5036459;28;21019;-72
2024/02/24 04:33:28;;;;;;;2.23;2.03;;;9.60;99.90;;;;;;5038123;28;20438;-73
2024/02/24 04:36:01;;;;;;;2.50;1.90;;;9.60;99.90;;;;;;5007365;28;20539;-73
2024/02/24 04:38:27;;;;;;;2.27;1.70;;;9.60;99.90;;;;;;5040621;28;20453;-73
2024/02/24 04:40:53;;;;;;;2.10;1.90;;;9.60;99.90;;;;;;5037171;28;20414;-73
2024/02/24 04:43:19;;;;;;;2.03;1.93;;;9.50;99.90;;;;;;5027003;28;20443;-73
2024/02/24 04:45:45;;;;;;;2.17;1.63;;;9.60;99.90;;;;;;5037231;28;20423;-73
2024/02/24 04:48:11;;;;;;;2.37;2.20;;;9.60;99.90;;;;;;5036522;28;20441;-72
2024/02/24 04:50:37;;;;;;;2.93;1.83;;;9.60;99.90;;;;;;5038788;28;20463;-72
2024/02/24 04:53:04;;;;;;;1.63;1.53;;;9.60;99.90;;;;;;5018315;28;20474;-73
2024/02/24 04:55:32;;;;;;;1.97;1.87;;;9.60;99.90;;;;;;5037930;28;20473;-73
2024/02/24 04:57:58;;;;;;;2.10;2.00;;;9.70;99.90;;;;;;5034953;28;21213;-72
2024/02/24 05:00:25;;;;;;;2.43;1.77;;;9.60;99.90;;;;;;5016973;28;20445;-72
2024/02/24 05:02:53;;;;;;;2.47;2.27;;;9.60;99.90;;;;;;5039018;28;20958;-73
2024/02/24 05:05:19;;;;;;;1.70;1.60;;;9.60;99.90;;;;;;5008044;28;21251;-73
2024/02/24 05:07:45;;;;;;;1.90;1.80;;;9.60;99.90;;;;;;5038539;28;20458;-73
2024/02/24 05:10:16;;;;;;;2.70;2.50;;;9.60;99.90;;;;;;5038737;28;20435;-72
2024/02/24 05:12:47;;;;;;;3.13;1.73;;;9.60;99.90;;;;;;5034595;28;20473;-73
2024/02/24 05:15:19;;;;;;;1.70;1.43;;;9.60;99.90;;;;;;5038299;28;20809;-72
2024/02/24 05:17:49;;;;;;;1.67;1.57;;;9.60;99.90;;;;;;5027862;28;20476;-72
2024/02/24 05:20:18;;;;;;;1.90;1.80;;;9.60;99.90;;;;;;5009099;28;20461;-73
2024/02/24 05:22:46;;;;;;;2.00;1.70;;;9.60;99.90;;;;;;5023047;28;20433;-72
2024/02/24 05:25:13;;;;;;;1.90;1.80;;;9.60;99.90;;;;;;5035904;28;20420;-72
2024/02/24 05:27:39;;;;;;;1.80;1.70;;;9.60;99.90;;;;;;5043045;28;20510;-72
2024/02/24 05:30:10;;;;;;;1.80;1.70;;;9.60;99.90;;;;;;5023757;28;20427;-73
2024/02/24 05:32:40;;;;;;;1.80;1.70;;;9.50;99.90;;;;;;5025314;28;20477;-72
2024/02/24 05:35:11;;;;;;;1.77;1.63;;;9.60;99.90;;;;;;5024425;28;20470;-73
2024/02/24 05:37:37;;;;;;;2.10;2.00;;;9.60;99.90;;;;;;5045149;28;20517;-73
2024/02/24 05:40:03;;;;;;;1.63;1.53;;;9.60;99.90;;;;;;5044987;28;20534;-72
2024/02/24 05:42:32;;;;;;;2.50;1.57;;;9.50;99.90;;;;;;5034913;28;20469;-71
2024/02/24 05:44:58;;;;;;;2.80;1.60;;;9.50;99.90;;;;;;5010777;28;20878;-71
2024/02/24 05:47:24;;;;;;;1.83;1.73;;;9.50;99.90;;;;;;5019873;28;20451;-71
2024/02/24 05:49:50;;;;;;;1.87;1.77;;;9.50;99.90;;;;;;5037780;28;20435;-71
2024/02/24 05:52:18;;;;;;;2.40;2.20;;;9.50;99.90;;;;;;5019719;28;20493;-73
2024/02/24 05:54:44;;;;;;;2.03;1.70;;;9.50;99.90;;;;;;5005846;28;20558;-70
2024/02/24 05:57:13;;;;;;;1.80;1.70;;;9.50;99.90;;;;;;5037258;28;20461;-70
2024/02/24 05:59:42;;;;;;;1.77;1.67;;;9.50;99.90;;;;;;5033999;28;20893;-70
2024/02/24 06:02:08;;;;;;;1.63;1.53;;;9.50;99.90;;;;;;5029435;28;20561;-69
2024/02/24 06:04:34;;;;;;;1.80;1.70;;;9.50;99.90;;;;;;5036071;28;20425;-70
2024/02/24 06:07:00;;;;;;;2.23;2.10;;;9.50;99.90;;;;;;5021266;28;20462;-71
2024/02/24 06:09:29;;;;;;;3.10;2.27;;;9.50;99.90;;;;;;5001516;28;20463;-69
2024/02/24 06:11:55;;;;;;;2.57;2.37;;;9.50;99.90;;;;;;5030955;28;21010;-71
2024/02/24 06:14:21;;;;;;;2.03;1.83;;;9.50;99.90;;;;;;5037267;28;20427;-71
2024/02/24 06:16:54;;;;;;;2.20;2.10;;;9.50;99.90;;;;;;5032199;28;20188;-71
2024/02/24 06:19:21;;;;;;;2.03;1.93;;;9.50;99.90;;;;;;5031482;28;20488;-70
2024/02/24 06:21:47;;;;;;;2.40;2.20;;;9.50;99.90;;;;;;5028374;28;20455;-70
2024/02/24 06:24:13;;;;;;;2.03;1.70;;;9.40;99.90;;;;;;5034881;28;20429;-70
2024/02/24 06:26:44;;;;;;;2.20;1.83;;;9.50;99.90;;;;;;5046985;28;20807;-70
2024/02/24 06:29:16;;;;;;;1.87;1.77;;;9.60;99.90;;;;;;5034987;28;20447;-70
2024/02/24 06:31:42;;;;;;;1.73;1.63;;;9.50;99.90;;;;;;5034333;28;20474;-70
2024/02/24 06:34:08;;;;;;;2.00;1.90;;;9.50;99.90;;;;;;5026789;28;20434;-70
2024/02/24 06:36:37;;;;;;;1.90;1.70;;;9.40;99.90;;;;;;5022796;28;20582;-71
2024/02/24 06:39:05;;;;;;;2.60;1.87;;;9.50;99.90;;;;;;5026218;28;20772;-70
2024/02/24 06:41:31;;;;;;;1.80;1.50;;;9.50;99.90;;;;;;5035519;28;20450;-70
2024/02/24 06:43:59;;;;;;;2.23;1.67;;;9.30;99.90;;;;;;5035763;28;20419;-71
2024/02/24 06:46:26;;;;;;;1.87;1.77;;;9.40;99.90;;;;;;5032073;28;21082;-71
2024/02/24 06:48:52;;;;;;;2.00;1.63;;;9.40;99.90;;;;;;5032549;28;20450;-71
2024/02/24 06:51:21;;;;;;;2.23;1.87;;;9.40;99.90;;;;;;5033134;28;21405;-70
2024/02/24 06:53:54;;;;;;;1.70;1.60;;;9.30;99.90;;;;;;5033945;28;20434;-70
2024/02/24 06:56:23;;;;;;;1.67;1.50;;;9.40;99.90;;;;;;5010419;28;20904;-71
2024/02/24 06:58:51;;;;;;;1.63;1.53;;;9.40;99.90;;;;;;5034401;28;21154;-71
2024/02/24 07:01:25;;;;;;;1.70;1.60;;;9.40;99.90;;;;;;5033572;28;20546;-71
2024/02/24 07:03:51;;;;;;;1.83;1.73;;;9.40;99.90;;;;;;5031308;28;21324;-70
2024/02/24 07:06:20;;;;;;;2.70;1.60;;;9.50;99.90;;;;;;5014232;28;20498;-71
2024/02/24 07:08:48;;;;;;;2.23;1.60;;;9.40;99.90;;;;;;5033728;28;21543;-71
2024/02/24 07:11:16;;;;;;;1.57;1.40;;;9.40;99.90;;;;;;5022567;28;21324;-71
2024/02/24 07:13:45;;;;;;;2.70;1.77;;;9.40;99.90;;;;;;5013968;28;20447;-70
2024/02/24 07:16:11;;;;;;;1.70;1.50;;;9.40;99.90;;;;;;5009342;28;20998;-69
2024/02/24 07:18:39;;;;;;;1.70;1.60;;;9.40;99.90;;;;;;5014135;28;20459;-71
2024/02/24 07:21:06;;;;;;;1.60;1.50;;;9.50;99.90;;;;;;4995759;28;20491;-70
2024/02/24 07:23:32;;;;;;;2.00;1.30;;;9.40;99.90;;;;;;4995447;28;20432;-71
2024/02/24 07:26:02;;;;;;;1.80;1.70;;;9.40;99.90;;;;;;4990120;28;20770;-71
2024/02/24 07:28:29;;;;;;;1.70;1.60;;;9.50;99.90;;;;;;5011770;28;20447;-71
2024/02/24 07:30:55;;;;;;;1.50;1.40;;;9.40;99.90;;;;;;4993799;28;20516;-71
2024/02/24 07:33:22;;;;;;;1.60;1.50;;;9.40;99.90;;;;;;5009130;28;20463;-70
2024/02/24 07:35:48;;;;;;;2.73;1.63;;;9.40;99.90;;;;;;5009473;28;20426;-71
2024/02/24 07:38:16;;;;;;;1.60;1.50;;;9.40;99.90;;;;;;5015065;28;20435;-71
2024/02/24 07:40:43;;;;;;;2.10;1.90;;;9.40;99.90;;;;;;4995531;28;20440;-71
2024/02/24 07:43:11;;;;;;;1.87;1.77;;;9.30;99.90;;;;;;5003513;28;20458;-71
2024/02/24 07:45:37;;;;;;;1.63;1.53;;;9.40;99.90;;;;;;5013112;28;20432;-70
2024/02/24 07:48:06;;;;;;;3.00;2.00;;;9.40;99.90;;;;;;5012878;28;20580;-71
2024/02/24 07:50:35;;;;;;;1.87;1.70;;;9.40;99.90;;;;;;4995523;28;20937;-75
2024/02/24 07:53:03;;;;;;;1.93;1.73;;;9.30;99.90;;;;;;5001985;28;20475;-72
2024/02/24 07:55:31;;;;;;;1.87;1.70;;;9.40;99.90;;;;;;4967492;28;21299;-72
2024/02/24 07:57:57;;;;;;;2.27;1.90;;;9.50;99.90;;;;;;4984394;28;21368;-73
2024/02/24 08:00:24;;;;;;;2.00;1.63;;;9.40;99.90;;;;;;5018087;28;20996;-72
2024/02/24 08:02:50;;;;;;;3.93;1.80;;;9.40;99.90;;;;;;5022061;28;20466;-72
2024/02/24 08:05:19;;;;;;;5.00;2.00;;;9.40;99.90;;;;;;5011097;28;20427;-72
2024/02/24 08:07:48;;;;;;;2.30;2.10;;;9.40;99.90;;;;;;4994928;28;20471;-72
2024/02/24 08:10:16;;;;;;;2.10;1.80;;;9.40;99.90;;;;;;5019943;28;20704;-72
2024/02/24 08:12:42;;;;;;;2.13;1.93;;;9.40;99.90;;;;;;5034245;28;20466;-72
2024/02/24 08:15:11;;;;;;;5.03;1.83;;;9.40;99.90;;;;;;5035500;28;20427;-72
2024/02/24 08:17:42;;;;;;;2.20;2.00;;;9.40;99.90;;;;;;5036117;28;20528;-72
2024/02/24 08:20:09;;;;;;;2.20;1.60;;;9.40;99.90;;;;;;5018608;28;20414;-72
2024/02/24 08:22:35;;;;;;;3.07;2.40;;;9.40;99.90;;;;;;5026884;28;20566;-72
2024/02/24 08:25:01;;;;;;;3.43;2.10;;;9.00;99.90;;;;;;5055340;28;20544;-72
2024/02/24 08:27:30;;;;;;;2.30;2.10;;;9.30;99.90;;;;;;5022599;28;20423;-72
2024/02/24 08:29:55;;;;;;;3.30;2.60;;;9.40;99.90;;;;;;5041500;28;20617;-73
2024/02/24 08:32:24;;;;;;;2.30;2.10;;;9.40;99.90;;;;;;5015061;28;20852;-72
2024/02/24 08:34:50;;;;;;;1.73;1.63;;;9.40;99.90;;;;;;5033163;28;20538;-72
2024/02/24 08:37:18;;;;;;;1.80;1.70;;;9.40;99.90;;;;;;5033568;28;20875;-72
2024/02/24 08:39:44;;;;;;;2.13;2.00;;;9.50;99.90;;;;;;5036453;28;20540;-72
2024/02/24 08:42:12;;;;;;;5.60;2.30;;;9.40;99.90;;;;;;5039850;28;20443;-72
2024/02/24 08:44:40;;;;;;;3.80;1.90;;;9.40;99.90;;;;;;5019861;28;20457;-73
2024/02/24 08:47:08;;;;;;;1.60;1.50;;;9.40;99.90;;;;;;5004621;28;20427;-72
2024/02/24 08:49:34;;;;;;;2.37;1.60;;;9.40;99.90;;;;;;5038489;28;20540;-72
2024/02/24 08:52:02;;;;;;;2.53;2.33;;;9.50;99.90;;;;;;5037618;28;21178;-72
2024/02/24 08:54:31;;;;;;;2.00;1.90;;;9.40;99.90;;;;;;5038447;28;21893;-72
2024/02/24 08:56:57;;;;;;;4.23;1.80;;;9.40;99.90;;;;;;5038563;28;20445;-72
2024/02/24 08:59:25;;;;;;;2.13;1.93;;;9.40;99.90;;;;;;5018371;28;20450;-72
2024/02/24 09:01:53;;;;;;;1.80;1.70;;;9.60;99.90;;;;;;5036818;28;20427;-72
2024/02/24 09:04:19;;;;;;;1.60;1.50;;;9.30;99.90;;;;;;5033734;28;20426;-73
2024/02/24 09:06:45;;;;;;;4.10;1.60;;;9.40;99.90;;;;;;5037148;28;20455;-72
2024/02/24 09:09:14;;;;;;;2.07;1.97;;;9.30;99.90;;;;;;5013371;28;20454;-73
2024/02/24 09:11:43;;;;;;;5.00;2.00;;;9.40;99.90;;;;;;5037631;28;20497;-73
2024/02/24 09:14:10;;;;;;;3.13;1.93;;;9.30;99.90;;;;;;5035580;28;20937;-72
2024/02/24 09:16:38;;;;;;;1.80;1.53;;;9.40;99.90;;;;;;5035618;28;21054;-72
2024/02/24 09:19:09;;;;;;;2.60;2.00;;;9.30;99.90;;;;;;5034943;28;20455;-73
2024/02/24 09:21:35;;;;;;;1.83;1.60;;;9.30;99.90;;;;;;5032223;28;20435;-73
2024/02/24 09:24:05;;;;;;;2.33;2.20;;;9.30;99.90;;;;;;5038194;28;20434;-73
2024/02/24 09:26:33;;;;;;;2.40;2.13;;;9.30;99.90;;;;;;5051568;28;20447;-73
2024/02/24 09:29:01;;;;;;;2.60;1.67;;;9.30;99.90;;;;;;5033272;28;20478;-74
2024/02/24 09:31:28;;;;;;;2.23;2.03;;;9.30;99.90;;;;;;5037322;28;20466;-72
2024/02/24 09:33:55;;;;;;;2.07;1.87;;;9.30;99.90;;;;;;5034032;28;20454;-71
2024/02/24 09:36:24;;;;;;;1.50;1.40;;;9.30;99.90;;;;;;5031000;28;20456;-74
2024/02/24 09:38:53;;;;;;;2.80;1.70;;;9.30;99.90;;;;;;5033524;28;20494;-72
2024/02/24 09:41:21;;;;;;;2.00;1.90;;;9.30;99.90;;;;;;5034163;28;20439;-73
2024/02/24 09:43:51;;;;;;;1.70;1.60;;;8.70;99.90;;;;;;5025676;28;20460;-73
2024/02/24 09:46:18;;;;;;;1.60;1.50;;;9.30;99.90;;;;;;5029868;28;20443;-71
2024/02/24 09:48:46;;;;;;;1.93;1.73;;;9.30;99.90;;;;;;5038187;28;20447;-71
2024/02/24 09:51:13;;;;;;;2.00;1.80;;;9.30;99.90;;;;;;5037536;28;20438;-72
2024/02/24 09:53:40;;;;;;;2.43;1.50;;;9.30;99.90;;;;;;5035788;28;21021;-73
2024/02/24 09:56:06;;;;;;;2.00;1.40;;;9.30;99.90;;;;;;5012595;28;20434;-74
2024/02/24 09:58:33;;;;;;;1.50;1.40;;;9.00;99.90;;;;;;5033908;28;20483;-74
2024/02/24 10:00:59;;;;;;;2.00;1.90;;;9.40;99.90;;;;;;5013341;28;20512;-75
2024/02/24 10:03:28;;;;;;;1.60;1.50;;;9.40;99.90;;;;;;5025114;28;20446;-75
2024/02/24 10:05:54;;;;;;;1.60;1.50;;;9.30;99.90;;;;;;5019957;28;20458;-74
2024/02/24 10:08:23;;;;;;;1.40;1.30;;;9.30;99.90;;;;;;5028329;28;20450;-72
2024/02/24 10:10:52;;;;;;;4.87;1.63;;;9.30;99.90;;;;;;5009168;28;20531;-72
2024/02/24 10:13:19;;;;;;;1.60;1.50;;;9.30;99.90;;;;;;5025107;28;20479;-75
2024/02/24 10:15:47;;;;;;;1.93;1.83;;;9.30;99.90;;;;;;5027741;28;20460;-72
2024/02/24 10:18:14;;;;;;;1.50;1.40;;;9.30;99.90;;;;;;5017593;28;21129;-73
2024/02/24 10:20:42;;;;;;;3.67;1.70;;;9.30;99.90;;;;;;5023977;22;20505;-25
2024/02/24 10:23:12;;;;;;;6.77;2.00;;;9.30;99.90;;;;;;5040569;28;20443;-30
2024/02/24 10:25:46;;;;;;;1.50;1.40;;;9.30;99.90;;;;;;5065416;28;21206;-33
2024/02/24 10:28:13;;;;;;;2.00;1.40;;;9.30;99.90;;;;;;5037828;28;20561;-34
2024/02/24 10:30:40;;;;;;;1.90;1.60;;;9.30;99.90;;;;;;5038871;28;20612;-31
2024/02/24 10:33:08;;;;;;;2.00;1.90;;;9.40;99.90;;;;;;5034926;28;20458;-32
2024/02/24 10:35:37;;;;;;;1.33;1.23;;;9.30;99.90;;;;;;5037960;28;20537;-31
2024/02/24 10:38:04;;;;;;;1.83;1.73;;;9.30;99.90;;;;;;5035906;28;20518;-32
2024/02/24 10:40:32;;;;;;;1.70;1.60;;;9.30;99.90;;;;;;5036313;28;20427;-32
2024/02/24 10:43:01;;;;;;;4.60;1.70;;;9.30;99.90;;;;;;5036402;28;20419;-32
2024/02/24 10:45:28;;;;;;;2.50;1.50;;;9.30;99.90;;;;;;5039018;28;20474;-34
2024/02/24 10:47:58;;;;;;;3.57;1.80;;;9.30;99.90;;;;;;5033482;28;20445;-29
2024/02/24 10:50:25;;;;;;;1.93;1.80;;;9.30;99.90;;;;;;5033098;28;20930;-32
2024/02/24 10:52:55;;;;;;;2.50;2.13;;;9.40;99.90;;;;;;5033588;28;21005;-31
2024/02/24 10:55:23;;;;;;;1.70;1.60;;;9.30;99.90;;;;;;5034822;28;21314;-31
2024/02/24 10:57:53;;;;;;;5.50;1.90;;;9.30;99.90;;;;;;5033292;28;21347;-32
2024/02/24 11:00:32;;;;;;;2.50;1.50;;;9.30;99.90;;;;;;5044068;28;20438;-31
2024/02/24 11:02:59;;;;;;;1.83;1.67;;;9.40;99.90;;;;;;5035079;28;20454;-32
2024/02/24 11:05:27;;;;;;;1.60;1.50;;;9.30;99.90;;;;;;5044888;28;20480;-27
2024/02/24 11:07:53;;;;;;;1.63;1.53;;;9.40;99.90;;;;;;5039359;28;20419;-28
2024/02/24 11:10:32;;;;;;;2.70;1.50;;;9.30;99.90;;;;;;5033235;28;20435;-33
2024/02/24 11:13:00;;;;;;;1.60;1.50;;;9.40;99.90;;;;;;5034204;28;20965;-33
2024/02/24 11:15:27;;;;;;;2.03;1.53;;;9.40;99.90;;;;;;5034567;28;20455;-30
2024/02/24 11:17:57;;;;;;;1.60;1.50;;;9.30;99.90;;;;;;5033230;28;20470;-31
2024/02/24 11:20:38;;;;;;;2.50;2.00;;;9.40;99.90;;;;;;5031431;28;20419;-31
2024/02/24 11:23:32;;;;;;;1.73;1.50;;;9.60;99.90;;;;;;5029463;28;20431;-27
2024/02/24 11:26:13;;;;;;;1.50;1.40;;;9.40;99.90;;;;;;5036458;28;20426;-36
2024/02/24 11:28:40;;;;;;;2.50;2.10;;;9.40;99.90;;;;;;5017099;28;20930;-34
2024/02/24 11:31:08;;;;;;;1.53;1.43;;;9.40;99.90;;;;;;5033186;28;20502;-31
2024/02/24 11:33:38;;;;;;;2.40;1.80;;;9.40;99.90;;;;;;5028140;28;20494;-34
2024/02/24 11:36:07;;;;;;;1.60;1.50;;;9.40;99.90;;;;;;5028966;28;20505;-29
2024/02/24 11:38:34;;;;;;;1.87;1.60;;;9.50;99.90;;;;;;5018262;28;20470;-31
2024/02/24 11:41:04;;;;;;;1.80;1.70;;;9.50;99.90;;;;;;5024138;28;20411;-32
2024/02/24 11:43:30;;;;;;;3.10;1.60;;;9.50;99.90;;;;;;5018382;28;20444;-31
2024/02/24 11:45:56;;;;;;;3.73;1.60;;;9.50;99.90;;;;;;5018413;28;21065;-30
2024/02/24 11:48:25;;;;;;;1.60;1.50;;;9.60;99.90;;;;;;5019683;28;21255;-29
2024/02/24 11:50:52;;;;;;;2.00;1.90;;;9.50;99.90;;;;;;5020197;28;20512;-28
2024/02/24 11:53:19;;;;;;;2.30;1.77;;;9.50;99.90;;;;;;5020661;28;20573;-31
2024/02/24 11:55:48;;;;;;;1.73;1.63;;;9.50;99.90;;;;;;5023782;28;20455;-33
2024/02/24 11:58:15;;;;;;;1.93;1.80;;;9.50;99.90;;;;;;5028655;28;20555;-31
2024/02/24 12:00:43;;;;;;;2.27;1.40;;;9.50;99.90;;;;;;5020736;28;20444;-31
2024/02/24 12:03:14;;;;;;;1.93;1.73;;;9.40;99.90;;;;;;5022867;28;20533;-31
2024/02/24 12:05:41;;;;;;;1.60;1.50;;;9.50;99.90;;;;;;5019580;28;21016;-31
2024/02/24 12:08:11;;;;;;;1.70;1.60;;;9.60;99.90;;;;;;5016891;28;20482;-32
2024/02/24 12:10:39;;;;;;;2.10;1.57;;;9.60;99.90;;;;;;5017006;28;20481;-33
2024/02/24 12:13:15;;;;;;;1.40;1.30;;;9.50;99.90;;;;;;5022047;28;20793;-31
2024/02/24 12:15:48;;;;;;;1.70;1.60;;;9.60;99.90;;;;;;5019674;28;20937;-33
2024/02/24 12:18:18;;;;;;;1.70;1.60;;;9.60;99.70;;;;;;5017824;28;20431;-31
2024/02/24 12:20:48;;;;;;;1.83;1.73;;;9.20;99.70;;;;;;5018850;28;20451;-32
2024/02/24 12:23:17;;;;;;;1.80;1.70;;;9.60;99.90;;;;;;5017141;28;21180;-31
2024/02/24 12:25:50;;;;;;;1.70;1.60;;;9.60;99.90;;;;;;5017920;28;20796;-31
2024/02/24 12:28:20;;;;;;;1.70;1.60;;;9.60;99.90;;;;;;5021723;28;20420;-32
2024/02/24 12:30:48;;;;;;;2.20;2.00;;;9.60;99.70;;;;;;5030613;28;20423;-29
2024/02/24 12:33:16;;;;;;;3.70;1.77;;;9.60;99.50;;;;;;5025302;28;20416;-33
2024/02/24 12:35:47;;;;;;;2.33;1.47;;;9.60;99.70;;;;;;5020305;28;20450;-29
2024/02/24 12:38:16;;;;;;;2.70;1.53;;;9.60;99.50;;;;;;5017719;28;20455;-33
2024/02/24 12:40:45;;;;;;;1.60;1.50;;;9.60;99.60;;;;;;5020360;28;20507;-31
2024/02/24 12:43:16;;;;;;;1.60;1.50;;;9.60;99.50;;;;;;5018531;28;20501;-36
2024/02/24 12:45:43;;;;;;;1.53;1.40;;;9.60;99.40;;;;;;5004411;28;20533;-30
2024/02/24 12:48:13;;;;;;;1.70;1.60;;;9.60;99.30;;;;;;5018707;28;20440;-31
2024/02/24 12:50:39;;;;;;;1.77;1.67;;;9.70;99.40;;;;;;5020174;28;20431;-31
2024/02/24 12:53:09;;;;;;;2.70;1.80;;;9.70;99.30;;;;;;5020127;28;20545;-32
2024/02/24 12:55:35;;;;;;;1.60;1.40;;;9.70;99.00;;;;;;5014278;28;20891;-30
2024/02/24 12:58:01;;;;;;;1.90;1.67;;;9.70;99.10;;;;;;5017834;28;20428;-31
2024/02/24 13:00:27;;;;;;;2.63;1.90;;;9.70;98.80;;;;;;5020194;28;21181;-32